Time;durP1;ratioP1;P1;durP2;ratioP2;P2;SDS_P1;SDS_P2;PMS_P1;PMS_P2;Temp;Humidity;BMP_temperature;BMP_pressure;BME280_temperature;BME280_humidity;BME280_pressure;Samples;Min_cycle;Max_cycle;Signal;HPM_P1;HPM_P2
2021/10/16 00:00:38;;;;;;;6.43;4.10;;;7.10;99.90;;;;;;4915462;29;20501;-78
2021/10/16 00:03:03;;;;;;;7.93;4.43;;;7.10;99.90;;;;;;4918081;29;20028;-77
2021/10/16 00:05:29;;;;;;;7.75;3.95;;;7.10;99.90;;;;;;4916557;29;20024;-76
2021/10/16 00:07:55;;;;;;;7.65;3.85;;;7.10;99.90;;;;;;4917483;29;20488;-77
2021/10/16 00:10:21;;;;;;;6.10;3.50;;;7.00;99.90;;;;;;4918053;29;20025;-73
2021/10/16 00:12:46;;;;;;;6.57;3.40;;;7.00;99.90;;;;;;4917116;29;20485;-77
2021/10/16 00:15:12;;;;;;;5.13;3.55;;;7.00;99.90;;;;;;4917418;29;20024;-77
2021/10/16 00:17:37;;;;;;;5.45;3.17;;;7.00;99.90;;;;;;4917538;29;20028;-74
2021/10/16 00:20:06;;;;;;;6.18;3.60;;;7.00;99.90;;;;;;4916481;29;20055;-76
2021/10/16 00:22:32;;;;;;;9.05;3.95;;;6.90;99.90;;;;;;4916861;29;20481;-76
2021/10/16 00:24:57;;;;;;;8.15;4.13;;;6.90;99.90;;;;;;4918006;29;20031;-77
2021/10/16 00:27:23;;;;;;;6.30;4.45;;;6.90;99.90;;;;;;4917622;29;20055;-75
2021/10/16 00:29:48;;;;;;;8.18;4.38;;;6.90;99.90;;;;;;4916450;29;20473;-73
2021/10/16 00:32:14;;;;;;;6.75;4.38;;;6.90;99.90;;;;;;4917568;29;20076;-74
2021/10/16 00:34:39;;;;;;;6.40;3.63;;;6.90;99.90;;;;;;4916587;29;20034;-73
2021/10/16 00:37:05;;;;;;;8.35;4.28;;;6.90;99.90;;;;;;4917820;29;20032;-75
2021/10/16 00:39:30;;;;;;;6.05;3.60;;;6.90;99.90;;;;;;4917262;29;20032;-75
2021/10/16 00:41:56;;;;;;;7.38;3.80;;;6.90;99.90;;;;;;4916848;29;20068;-74
2021/10/16 00:44:23;;;;;;;5.32;3.45;;;6.90;99.90;;;;;;4916356;29;20087;-76
2021/10/16 00:46:52;;;;;;;8.80;3.78;;;6.90;99.90;;;;;;4917705;29;20032;-76
2021/10/16 00:49:17;;;;;;;6.95;3.97;;;6.90;99.90;;;;;;4916588;29;20485;-76
2021/10/16 00:51:43;;;;;;;7.05;3.85;;;6.90;99.90;;;;;;4917107;29;20626;-73
2021/10/16 00:54:10;;;;;;;9.82;3.35;;;6.90;99.90;;;;;;4917167;29;20469;-74
2021/10/16 00:56:42;;;;;;;8.02;3.75;;;6.90;99.90;;;;;;4916448;29;20024;-78
2021/10/16 00:59:08;;;;;;;5.10;2.85;;;6.80;99.90;;;;;;4917291;29;20039;-76
2021/10/16 01:01:35;;;;;;;6.18;3.78;;;6.80;99.90;;;;;;4915521;29;20032;-78
2021/10/16 01:04:02;;;;;;;6.78;4.07;;;6.80;99.90;;;;;;4914979;29;20075;-77
2021/10/16 01:06:28;;;;;;;6.45;3.30;;;6.80;99.90;;;;;;4916843;29;20115;-77
2021/10/16 01:08:56;;;;;;;6.07;3.67;;;6.90;99.90;;;;;;4914897;29;20366;-76
2021/10/16 01:11:38;;;;;;;8.80;3.53;;;6.80;99.90;;;;;;4916287;29;20436;-75
2021/10/16 01:14:06;;;;;;;7.22;3.83;;;6.80;99.90;;;;;;4916089;29;20110;-77
2021/10/16 01:16:32;;;;;;;5.72;3.40;;;6.80;99.90;;;;;;4915167;29;20389;-77
2021/10/16 01:18:58;;;;;;;7.45;3.80;;;6.80;99.90;;;;;;4916149;29;20487;-77
2021/10/16 01:21:25;;;;;;;6.10;3.38;;;6.80;99.90;;;;;;4914400;29;20046;-75
2021/10/16 01:23:51;;;;;;;6.65;3.63;;;6.70;99.90;;;;;;4930131;29;20032;-75
2021/10/16 01:26:17;;;;;;;6.72;3.90;;;6.70;99.90;;;;;;4915996;29;20091;-73
2021/10/16 01:28:43;;;;;;;7.40;4.40;;;6.70;99.90;;;;;;4914411;29;20021;-74
2021/10/16 01:31:09;;;;;;;7.93;4.38;;;6.70;99.90;;;;;;4915164;29;20508;-75
2021/10/16 01:33:34;;;;;;;7.00;3.83;;;6.70;99.90;;;;;;4930062;29;20519;-77
2021/10/16 01:36:05;;;;;;;9.80;3.75;;;6.70;99.90;;;;;;4915890;29;20036;-74
2021/10/16 01:38:32;;;;;;;4.88;2.70;;;6.80;99.90;;;;;;4913660;29;20059;-75
2021/10/16 01:40:58;;;;;;;6.45;2.88;;;6.80;99.90;;;;;;4915563;29;20036;-74
2021/10/16 01:43:25;;;;;;;5.43;3.08;;;6.80;99.90;;;;;;4915448;29;20031;-73
2021/10/16 01:45:54;;;;;;;6.13;3.00;;;6.80;99.90;;;;;;4915166;29;20032;-76
2021/10/16 01:48:21;;;;;;;5.55;2.50;;;6.80;99.90;;;;;;4914468;29;20031;-76
2021/10/16 01:50:47;;;;;;;6.28;3.10;;;6.80;99.90;;;;;;4915505;29;20028;-75
2021/10/16 01:53:13;;;;;;;5.70;3.05;;;6.80;99.90;;;;;;4915027;29;20047;-74
2021/10/16 01:55:38;;;;;;;6.72;3.03;;;6.80;99.90;;;;;;4929797;29;20032;-74
2021/10/16 01:58:09;;;;;;;6.47;3.47;;;6.80;99.90;;;;;;4915480;29;20035;-76
2021/10/16 02:00:35;;;;;;;5.23;3.20;;;6.80;99.90;;;;;;4914522;29;20503;-75
2021/10/16 02:03:05;;;;;;;6.22;3.33;;;6.70;99.90;;;;;;4915535;29;20062;-74
2021/10/16 02:05:31;;;;;;;9.75;3.85;;;6.70;99.90;;;;;;4915124;29;20035;-75
2021/10/16 02:07:57;;;;;;;5.30;3.38;;;6.70;99.90;;;;;;4913465;29;20036;-74
2021/10/16 02:10:22;;;;;;;5.70;3.28;;;6.70;99.90;;;;;;4914049;29;20039;-76
2021/10/16 02:12:48;;;;;;;4.53;3.38;;;6.70;99.90;;;;;;4893477;29;1051819;-76
2021/10/16 02:15:13;;;;;;;8.43;3.70;;;6.70;99.90;;;;;;4915952;29;20036;-74
2021/10/16 02:17:39;;;;;;;6.03;3.00;;;6.70;99.90;;;;;;4915671;29;20080;-73
2021/10/16 02:20:05;;;;;;;4.28;2.95;;;6.70;99.90;;;;;;4915042;29;20032;-77
2021/10/16 02:22:30;;;;;;;5.22;2.72;;;6.70;99.90;;;;;;4915705;29;20091;-74
2021/10/16 02:24:56;;;;;;;4.72;3.30;;;6.70;99.90;;;;;;4930522;29;20489;-77
2021/10/16 02:27:21;;;;;;;5.57;3.53;;;6.70;99.90;;;;;;4915354;29;20036;-77
2021/10/16 02:29:47;;;;;;;6.43;3.28;;;6.70;99.90;;;;;;4916050;29;20051;-78
2021/10/16 02:32:12;;;;;;;4.70;2.92;;;6.70;99.90;;;;;;4915605;29;20031;-77
2021/10/16 02:34:38;;;;;;;5.07;3.40;;;6.70;99.90;;;;;;4914812;29;20497;-77
2021/10/16 02:37:04;;;;;;;12.27;5.05;;;6.70;99.90;;;;;;4915909;29;20028;-78
2021/10/16 02:39:30;;;;;;;10.57;5.45;;;6.80;99.90;;;;;;4914500;29;20083;-76
2021/10/16 02:41:56;;;;;;;11.73;6.80;;;6.80;99.90;;;;;;4915117;29;20635;-77
2021/10/16 02:44:22;;;;;;;11.35;6.78;;;6.80;99.90;;;;;;4915678;29;20103;-75
2021/10/16 02:46:48;;;;;;;17.85;7.65;;;6.80;99.90;;;;;;4915567;29;20060;-76
2021/10/16 02:49:14;;;;;;;16.08;7.05;;;6.90;99.90;;;;;;4929726;29;20016;-76
2021/10/16 02:51:39;;;;;;;13.27;7.45;;;6.90;99.90;;;;;;4915395;29;20462;-76
2021/10/16 02:54:05;;;;;;;15.48;8.10;;;6.90;99.90;;;;;;4915689;29;20092;-76
2021/10/16 02:56:31;;;;;;;12.93;6.43;;;6.90;99.90;;;;;;4914937;29;20120;-74
2021/10/16 02:58:56;;;;;;;11.70;5.85;;;6.90;99.90;;;;;;4915682;29;20032;-77
2021/10/16 03:01:22;;;;;;;11.18;5.30;;;6.90;99.90;;;;;;4915467;29;20123;-74
2021/10/16 03:03:48;;;;;;;10.68;4.95;;;7.00;99.90;;;;;;4914700;29;20372;-76
2021/10/16 03:06:13;;;;;;;6.07;3.78;;;7.10;99.90;;;;;;4915674;29;20040;-77
2021/10/16 03:08:39;;;;;;;5.30;3.30;;;7.10;99.90;;;;;;4915326;29;20473;-75
2021/10/16 03:11:04;;;;;;;5.22;3.53;;;7.10;99.90;;;;;;4915013;29;20107;-77
2021/10/16 03:13:32;;;;;;;7.03;3.70;;;7.20;99.90;;;;;;4914958;29;20059;-77
2021/10/16 03:15:58;;;;;;;4.93;3.38;;;7.20;99.90;;;;;;4915108;29;20024;-75
2021/10/16 03:18:24;;;;;;;6.82;3.63;;;7.20;99.90;;;;;;4915337;29;20159;-76
2021/10/16 03:20:49;;;;;;;7.40;3.22;;;7.30;99.90;;;;;;4915499;29;20071;-75
2021/10/16 03:23:15;;;;;;;6.82;3.50;;;7.40;99.90;;;;;;4914601;29;20093;-76
2021/10/16 03:25:40;;;;;;;10.27;2.97;;;7.40;99.90;;;;;;4915132;29;20477;-77
2021/10/16 03:28:06;;;;;;;6.20;2.97;;;7.40;99.90;;;;;;4915337;29;20377;-78
2021/10/16 03:30:32;;;;;;;7.60;3.20;;;7.50;99.90;;;;;;4914171;29;20047;-77
2021/10/16 03:32:57;;;;;;;4.90;3.15;;;7.50;99.90;;;;;;4916556;29;20020;-78
2021/10/16 03:35:23;;;;;;;7.30;3.80;;;7.60;99.90;;;;;;4918901;29;20102;-74
2021/10/16 03:37:49;;;;;;;4.72;2.70;;;7.60;99.90;;;;;;4918149;29;20024;-77
2021/10/16 03:40:14;;;;;;;4.45;2.20;;;7.60;99.90;;;;;;4917308;29;20024;-78
2021/10/16 03:42:40;;;;;;;3.90;2.40;;;7.70;99.90;;;;;;4918256;29;20032;-75
2021/10/16 03:45:05;;;;;;;3.60;2.50;;;7.70;99.90;;;;;;4918089;29;20028;-77
2021/10/16 03:47:31;;;;;;;5.45;3.00;;;7.70;99.90;;;;;;4918283;29;20060;-78
2021/10/16 03:49:56;;;;;;;9.45;2.28;;;7.70;99.90;;;;;;4918361;29;20477;-75
2021/10/16 03:52:22;;;;;;;5.05;2.55;;;7.80;99.90;;;;;;4917811;29;20396;-77
2021/10/16 03:54:47;;;;;;;5.60;2.83;;;7.80;99.90;;;;;;4918391;29;20489;-77
2021/10/16 03:57:13;;;;;;;4.68;2.28;;;7.80;99.90;;;;;;4932980;29;20095;-77
2021/10/16 03:59:42;;;;;;;7.00;2.42;;;7.90;99.90;;;;;;4917410;29;20103;-76
2021/10/16 04:02:08;;;;;;;4.38;2.20;;;7.90;99.90;;;;;;4916905;29;20040;-78
2021/10/16 04:04:34;;;;;;;4.72;2.28;;;8.00;99.90;;;;;;4917767;29;20374;-78
2021/10/16 04:06:59;;;;;;;3.75;2.38;;;7.90;99.90;;;;;;4917344;29;20039;-76
2021/10/16 04:09:25;;;;;;;4.93;2.00;;;8.00;99.90;;;;;;4917859;29;20028;-77
2021/10/16 04:11:52;;;;;;;4.47;2.40;;;8.00;99.90;;;;;;4917877;29;20044;-77
2021/10/16 04:14:17;;;;;;;3.55;2.30;;;8.00;99.90;;;;;;4917252;29;20500;-77
2021/10/16 04:16:43;;;;;;;4.45;2.35;;;8.10;99.90;;;;;;4932518;29;20032;-74
2021/10/16 04:19:08;;;;;;;3.40;2.42;;;8.10;99.90;;;;;;4917919;29;20473;-75
2021/10/16 04:21:34;;;;;;;5.28;2.38;;;8.10;99.90;;;;;;4915613;29;20051;-77
2021/10/16 04:23:59;;;;;;;5.82;2.45;;;8.20;99.90;;;;;;4917806;29;20020;-76
2021/10/16 04:26:26;;;;;;;4.78;2.17;;;8.20;99.90;;;;;;4917006;29;20028;-78
2021/10/16 04:28:51;;;;;;;4.13;2.05;;;8.20;99.90;;;;;;4917963;29;20415;-76
2021/10/16 04:31:17;;;;;;;3.58;2.00;;;8.20;99.90;;;;;;4917814;29;20028;-74
2021/10/16 04:33:42;;;;;;;4.10;2.33;;;8.30;99.90;;;;;;4916702;29;20024;-74
2021/10/16 04:36:08;;;;;;;4.50;2.67;;;8.30;99.90;;;;;;4916229;29;20099;-80
2021/10/16 04:38:34;;;;;;;6.32;2.17;;;8.30;99.90;;;;;;4917405;29;20107;-80
2021/10/16 04:41:01;;;;;;;4.22;2.53;;;8.30;99.90;;;;;;4916838;29;20036;-79
2021/10/16 04:43:27;;;;;;;3.83;2.30;;;8.40;99.90;;;;;;4917141;29;20488;-79
2021/10/16 04:45:53;;;;;;;6.68;2.97;;;8.40;99.90;;;;;;4917636;29;20118;-76
2021/10/16 04:48:18;;;;;;;4.57;2.90;;;8.40;99.90;;;;;;4916849;29;20099;-80
2021/10/16 04:50:45;;;;;;;5.25;2.90;;;8.40;99.90;;;;;;4917197;29;20312;-81
2021/10/16 04:53:11;;;;;;;4.55;2.58;;;8.40;99.90;;;;;;4917253;29;20028;-77
2021/10/16 04:55:36;;;;;;;3.20;2.15;;;8.50;99.90;;;;;;4915294;29;20114;-78
2021/10/16 04:58:02;;;;;;;4.57;2.47;;;8.50;99.90;;;;;;4917225;29;20099;-74
2021/10/16 05:00:28;;;;;;;3.15;2.17;;;8.50;99.90;;;;;;4916938;29;20039;-75
2021/10/16 05:02:53;;;;;;;5.03;2.25;;;8.50;99.90;;;;;;4915221;29;20111;-75
2021/10/16 05:05:19;;;;;;;4.05;2.42;;;8.50;99.90;;;;;;4917027;29;20028;-79
2021/10/16 05:07:44;;;;;;;5.30;2.45;;;8.50;99.90;;;;;;4916880;29;20119;-77
2021/10/16 05:10:10;;;;;;;5.38;2.42;;;8.60;99.90;;;;;;4916428;29;20028;-79
2021/10/16 05:12:36;;;;;;;6.15;3.05;;;8.60;99.90;;;;;;4916688;29;20048;-77
2021/10/16 05:15:02;;;;;;;5.72;2.63;;;8.60;99.90;;;;;;4931752;29;20025;-80
2021/10/16 05:17:27;;;;;;;3.83;2.47;;;8.60;99.90;;;;;;4914720;29;20028;-80
2021/10/16 05:19:53;;;;;;;4.82;2.88;;;8.60;99.90;;;;;;4915681;29;20024;-75
2021/10/16 05:22:19;;;;;;;6.47;3.33;;;8.60;99.90;;;;;;4916654;29;20044;-77
2021/10/16 05:24:44;;;;;;;4.45;2.90;;;8.70;99.90;;;;;;4915978;29;20024;-80
2021/10/16 05:27:10;;;;;;;4.53;2.70;;;8.70;99.90;;;;;;4916719;29;20061;-80
2021/10/16 05:29:35;;;;;;;7.22;3.08;;;8.70;99.90;;;;;;4915017;29;20023;-74
2021/10/16 05:32:01;;;;;;;8.30;3.60;;;8.70;99.90;;;;;;4916270;29;20036;-76
2021/10/16 05:34:26;;;;;;;6.47;3.25;;;8.70;99.90;;;;;;4916211;29;20091;-78
2021/10/16 05:36:52;;;;;;;4.15;2.65;;;8.70;99.90;;;;;;4916112;29;20027;-75
2021/10/16 05:39:18;;;;;;;4.63;3.22;;;8.70;99.90;;;;;;4915426;29;20477;-75
2021/10/16 05:41:44;;;;;;;5.88;3.15;;;8.70;99.90;;;;;;4914903;29;20086;-74
2021/10/16 05:44:09;;;;;;;4.88;2.70;;;8.70;99.90;;;;;;4915647;29;20028;-81
2021/10/16 05:46:36;;;;;;;3.70;2.60;;;8.70;99.90;;;;;;4916153;29;20071;-80
2021/10/16 05:49:03;;;;;;;7.55;3.30;;;8.80;99.90;;;;;;4915102;29;20056;-74
2021/10/16 05:51:28;;;;;;;6.10;3.22;;;8.80;99.90;;;;;;4915743;29;20033;-79
2021/10/16 05:53:54;;;;;;;4.35;3.17;;;8.80;99.90;;;;;;4916179;29;20032;-74
2021/10/16 05:56:20;;;;;;;5.32;2.80;;;8.80;99.90;;;;;;4915894;29;20020;-80
2021/10/16 05:58:45;;;;;;;6.25;3.08;;;8.80;99.90;;;;;;4915629;29;20496;-80
2021/10/16 06:01:11;;;;;;;4.30;2.47;;;8.80;99.90;;;;;;4916121;29;20059;-76
2021/10/16 06:03:36;;;;;;;4.80;2.50;;;8.80;99.90;;;;;;4915840;29;20039;-79
2021/10/16 06:06:02;;;;;;;7.35;3.42;;;8.80;99.90;;;;;;4915474;29;20063;-75
2021/10/16 06:08:27;;;;;;;5.97;2.33;;;8.80;99.90;;;;;;4915779;29;20031;-80
2021/10/16 06:10:53;;;;;;;5.13;2.72;;;8.80;99.90;;;;;;4916252;29;20032;-80
2021/10/16 06:13:18;;;;;;;6.78;3.03;;;8.80;99.90;;;;;;4915301;29;20099;-79
2021/10/16 06:15:44;;;;;;;5.15;2.65;;;8.90;99.90;;;;;;4915825;29;20032;-76
2021/10/16 06:18:11;;;;;;;5.63;2.80;;;8.90;99.90;;;;;;4915984;29;20521;-76
2021/10/16 06:20:37;;;;;;;7.40;3.28;;;8.90;99.90;;;;;;4914917;29;20040;-76
2021/10/16 06:23:03;;;;;;;4.20;3.28;;;8.90;99.90;;;;;;4914550;29;20028;-77
2021/10/16 06:25:29;;;;;;;7.45;3.67;;;8.90;99.90;;;;;;4913007;29;20030;-77
2021/10/16 06:27:54;;;;;;;5.93;3.65;;;8.90;99.90;;;;;;4912569;29;20055;-75
2021/10/16 06:30:20;;;;;;;4.65;2.78;;;8.90;99.90;;;;;;4915445;29;20407;-75
2021/10/16 06:32:46;;;;;;;5.55;2.90;;;9.00;99.90;;;;;;4914897;29;20396;-77
2021/10/16 06:35:12;;;;;;;5.68;3.28;;;9.00;99.90;;;;;;4913154;29;20083;-75
2021/10/16 06:37:37;;;;;;;5.15;3.53;;;9.00;99.90;;;;;;4920208;29;20031;-77
2021/10/16 06:40:03;;;;;;;7.32;3.30;;;9.00;99.90;;;;;;4913254;29;20076;-74
2021/10/16 06:42:29;;;;;;;7.15;3.20;;;9.00;99.90;;;;;;4913577;29;20028;-76
2021/10/16 06:44:54;;;;;;;5.72;3.28;;;9.10;99.90;;;;;;4924398;29;20063;-75
2021/10/16 06:47:20;;;;;;;6.38;3.55;;;9.10;99.90;;;;;;4923169;29;20070;-75
2021/10/16 06:49:45;;;;;;;4.63;3.53;;;9.10;99.90;;;;;;4920942;29;20052;-77
2021/10/16 06:52:11;;;;;;;7.13;3.20;;;9.10;99.90;;;;;;4915162;29;20024;-77
2021/10/16 06:54:36;;;;;;;8.60;3.88;;;9.10;99.90;;;;;;4918050;29;20403;-78
2021/10/16 06:57:02;;;;;;;4.55;3.30;;;9.10;99.90;;;;;;4917367;29;20032;-78
2021/10/16 06:59:27;;;;;;;7.60;3.63;;;9.20;99.90;;;;;;4917624;29;20050;-76
2021/10/16 07:01:53;;;;;;;4.47;3.28;;;9.20;99.90;;;;;;4910576;29;20036;-79
2021/10/16 07:04:19;;;;;;;5.43;3.35;;;9.20;99.90;;;;;;4928133;29;20027;-75
2021/10/16 07:06:44;;;;;;;6.95;3.63;;;9.20;99.90;;;;;;4926833;29;20032;-75
2021/10/16 07:09:10;;;;;;;6.72;3.53;;;9.30;99.90;;;;;;4916547;29;20016;-73
2021/10/16 07:11:36;;;;;;;8.45;3.80;;;9.30;99.90;;;;;;4916663;29;20325;-76
2021/10/16 07:14:01;;;;;;;6.28;3.55;;;9.30;99.90;;;;;;4917703;29;20119;-75
2021/10/16 07:16:28;;;;;;;6.88;3.30;;;9.40;99.90;;;;;;4914896;29;20532;-76
2021/10/16 07:18:53;;;;;;;7.05;3.50;;;9.40;99.90;;;;;;4918200;29;20454;-74
2021/10/16 07:21:19;;;;;;;4.55;3.45;;;9.40;99.90;;;;;;4918128;29;20111;-74
2021/10/16 07:23:45;;;;;;;5.22;3.22;;;9.40;99.90;;;;;;4915893;29;20465;-76
2021/10/16 07:26:11;;;;;;;5.07;3.42;;;9.50;99.90;;;;;;4918029;29;20812;-74
2021/10/16 07:28:37;;;;;;;6.82;3.47;;;9.50;99.90;;;;;;4917515;29;20436;-76
2021/10/16 07:31:03;;;;;;;4.72;3.03;;;9.50;99.90;;;;;;4939972;29;20116;-77
2021/10/16 07:33:28;;;;;;;3.95;2.80;;;9.50;99.90;;;;;;4917508;29;20031;-75
2021/10/16 07:35:54;;;;;;;5.47;3.42;;;9.60;99.90;;;;;;4917788;29;20537;-73
2021/10/16 07:38:20;;;;;;;6.05;3.65;;;9.60;99.90;;;;;;4916908;29;20374;-77
2021/10/16 07:40:45;;;;;;;7.55;3.70;;;9.70;99.90;;;;;;4915152;29;20119;-76
2021/10/16 07:43:11;;;;;;;8.73;3.92;;;9.70;99.90;;;;;;4917017;29;20469;-75
2021/10/16 07:45:37;;;;;;;5.80;3.08;;;9.80;99.90;;;;;;4931418;29;20366;-77
2021/10/16 07:48:03;;;;;;;6.57;3.63;;;9.80;99.90;;;;;;4917654;29;20075;-74
2021/10/16 07:50:29;;;;;;;9.82;4.03;;;9.80;99.90;;;;;;4931239;29;20032;-75
2021/10/16 07:52:54;;;;;;;6.90;3.60;;;9.90;99.90;;;;;;4917562;29;20020;-74
2021/10/16 07:55:20;;;;;;;7.05;3.55;;;9.90;99.90;;;;;;4916270;29;20024;-76
2021/10/16 07:57:45;;;;;;;4.95;3.60;;;9.90;99.90;;;;;;4916680;29;20032;-76
2021/10/16 08:00:11;;;;;;;7.55;3.92;;;10.00;99.90;;;;;;4916184;29;20016;-77
2021/10/16 08:02:37;;;;;;;5.90;3.40;;;10.00;99.90;;;;;;4915671;29;20036;-77
2021/10/16 08:05:02;;;;;;;8.20;3.95;;;10.00;99.90;;;;;;4916687;29;20024;-76
2021/10/16 08:07:29;;;;;;;7.15;3.33;;;10.10;99.90;;;;;;4915087;29;20036;-76
2021/10/16 08:09:54;;;;;;;7.53;4.32;;;10.10;99.90;;;;;;4917638;29;20389;-78
2021/10/16 08:12:20;;;;;;;5.60;3.30;;;10.20;99.90;;;;;;4915401;29;20044;-76
2021/10/16 08:14:46;;;;;;;6.15;3.85;;;10.20;99.90;;;;;;4916139;29;20056;-76
2021/10/16 08:17:11;;;;;;;6.28;3.67;;;10.20;99.90;;;;;;4917368;29;20016;-78
2021/10/16 08:19:37;;;;;;;7.60;3.58;;;10.30;99.90;;;;;;4915930;29;20028;-82
2021/10/16 08:22:03;;;;;;;6.07;3.92;;;10.30;99.90;;;;;;4917660;29;20058;-78
2021/10/16 08:24:29;;;;;;;7.97;3.78;;;10.30;99.90;;;;;;4929941;29;20035;-76
2021/10/16 08:26:54;;;;;;;8.75;4.30;;;10.40;99.90;;;;;;4916127;29;20032;-77
2021/10/16 08:29:20;;;;;;;6.30;3.63;;;10.30;99.90;;;;;;4917624;29;20025;-79
2021/10/16 08:31:46;;;;;;;8.35;4.10;;;10.40;99.90;;;;;;4915841;29;20067;-78
2021/10/16 08:34:11;;;;;;;6.38;3.88;;;10.50;99.90;;;;;;4915694;29;20029;-79
2021/10/16 08:36:38;;;;;;;5.43;3.63;;;10.50;99.90;;;;;;4915532;29;20033;-77
2021/10/16 08:39:04;;;;;;;9.65;3.90;;;10.60;99.90;;;;;;4915127;29;20044;-76
2021/10/16 08:41:30;;;;;;;6.00;3.50;;;10.60;99.90;;;;;;4913713;29;20040;-79
2021/10/16 08:43:56;;;;;;;7.63;3.75;;;10.70;99.90;;;;;;4915194;29;20017;-76
2021/10/16 08:46:24;;;;;;;8.50;4.00;;;10.70;99.90;;;;;;4914966;29;20071;-77
2021/10/16 08:48:49;;;;;;;7.03;3.78;;;10.70;99.90;;;;;;4916102;29;20434;-75
2021/10/16 08:51:15;;;;;;;8.70;4.10;;;10.70;99.90;;;;;;4916113;29;20489;-75
2021/10/16 08:53:40;;;;;;;9.15;3.78;;;10.80;99.90;;;;;;4915989;29;20032;-73
2021/10/16 08:56:07;;;;;;;9.55;4.45;;;10.80;99.90;;;;;;4917185;29;20031;-74
2021/10/16 08:58:33;;;;;;;10.43;4.78;;;10.90;99.90;;;;;;4915385;29;20021;-74
2021/10/16 09:01:01;;;;;;;6.97;4.25;;;10.90;99.90;;;;;;4916485;29;20036;-77
2021/10/16 09:03:35;;;;;;;8.98;4.10;;;10.90;99.90;;;;;;4915221;29;20032;-74
2021/10/16 09:06:14;;;;;;;7.90;4.65;;;11.00;99.90;;;;;;4916656;29;20493;-73
2021/10/16 09:08:39;;;;;;;8.60;4.50;;;11.00;99.90;;;;;;4915994;29;20032;-74
2021/10/16 09:11:12;;;;;;;9.52;3.95;;;11.00;99.90;;;;;;4931506;29;20032;-74
2021/10/16 09:13:48;;;;;;;6.47;3.78;;;11.10;99.90;;;;;;4930668;29;20489;-74
2021/10/16 09:16:24;;;;;;;8.20;4.18;;;11.10;99.90;;;;;;4930655;29;20042;-74
2021/10/16 09:18:54;;;;;;;7.10;3.72;;;11.20;99.90;;;;;;4916450;29;20032;-74
2021/10/16 09:21:22;;;;;;;9.55;3.83;;;11.20;99.90;;;;;;4915207;29;20041;-73
2021/10/16 09:23:59;;;;;;;8.60;3.92;;;11.20;99.90;;;;;;4915560;29;20111;-73
2021/10/16 09:26:25;;;;;;;10.50;4.07;;;11.30;99.90;;;;;;4916249;29;20030;-73
2021/10/16 09:29:02;;;;;;;8.07;3.95;;;11.30;99.90;;;;;;4914636;29;20215;-73
2021/10/16 09:31:48;;;;;;;14.15;4.38;;;11.40;99.90;;;;;;4915930;29;20484;-74
2021/10/16 09:34:26;;;;;;;9.23;4.28;;;11.40;99.90;;;;;;4914779;29;20172;-74
2021/10/16 09:36:52;;;;;;;6.43;3.53;;;11.40;99.90;;;;;;4911664;29;20036;-73
2021/10/16 09:39:19;;;;;;;6.30;3.90;;;11.40;99.90;;;;;;4896013;29;20025;-73
2021/10/16 09:41:46;;;;;;;7.50;3.60;;;11.40;99.90;;;;;;4895845;29;20048;-74
2021/10/16 09:44:24;;;;;;;9.63;3.72;;;11.50;99.90;;;;;;4914307;29;20528;-74
2021/10/16 09:47:03;;;;;;;8.18;3.90;;;11.50;99.90;;;;;;4916379;29;20133;-78
2021/10/16 09:49:33;;;;;;;7.68;3.60;;;11.50;99.90;;;;;;4939149;29;20032;-82
2021/10/16 09:51:59;;;;;;;5.93;3.38;;;11.60;99.90;;;;;;4913392;29;20609;-83
2021/10/16 09:54:25;;;;;;;5.47;3.42;;;11.70;99.90;;;;;;4913887;29;20075;-78
2021/10/16 09:56:52;;;;;;;6.93;3.17;;;11.70;99.90;;;;;;4916425;29;20463;-82
2021/10/16 09:59:24;;;;;;;9.77;3.55;;;11.80;99.90;;;;;;4930081;29;20031;-81
2021/10/16 10:01:49;;;;;;;;;;;11.80;99.90;;;;;;4916448;29;20046;-81
2021/10/16 10:04:22;;;;;;;10.68;4.85;;;11.90;99.90;;;;;;4915224;29;20021;-79
2021/10/16 10:06:52;;;;;;;6.25;3.92;;;11.90;99.90;;;;;;4915725;29;20025;-80
2021/10/16 10:09:19;;;;;;;5.47;2.92;;;11.90;99.90;;;;;;4914650;29;20079;-78
2021/10/16 10:11:47;;;;;;;8.13;4.20;;;11.90;99.90;;;;;;4914241;29;20039;-78
2021/10/16 10:14:17;;;;;;;7.75;3.30;;;12.00;99.90;;;;;;4914195;29;20044;-78
2021/10/16 10:16:43;;;;;;;10.05;3.58;;;12.10;99.90;;;;;;4930579;29;20476;-80
2021/10/16 10:19:10;;;;;;;13.23;4.35;;;12.00;99.90;;;;;;4915417;29;20133;-82
2021/10/16 10:21:38;;;;;;;8.70;3.63;;;12.10;99.90;;;;;;4915451;29;20032;-81
2021/10/16 10:24:07;;;;;;;11.00;3.97;;;12.10;99.90;;;;;;4929613;29;20370;-79
2021/10/16 10:26:44;;;;;;;9.48;3.10;;;12.10;99.90;;;;;;4929314;29;20067;-81
2021/10/16 10:29:13;;;;;;;8.48;3.15;;;12.20;99.90;;;;;;4914994;29;20036;-77
2021/10/16 10:31:45;;;;;;;9.63;3.53;;;12.20;99.90;;;;;;4912514;29;20555;-78
2021/10/16 10:34:14;;;;;;;;;;;12.20;99.90;;;;;;4914701;29;20029;-77
2021/10/16 10:36:45;;;;;;;7.25;3.58;;;12.30;99.90;;;;;;4931506;29;19907;-75
2021/10/16 10:39:33;;;;;;;6.47;3.05;;;12.40;99.90;;;;;;4910812;29;20035;-73
2021/10/16 10:42:17;;;;;;;10.50;3.50;;;12.40;99.90;;;;;;4935975;28;20568;-76
2021/10/16 10:44:50;;;;;;;8.63;3.15;;;12.50;99.90;;;;;;4938231;29;20457;-76
2021/10/16 10:47:30;;;;;;;7.03;3.17;;;12.50;99.90;;;;;;4917502;29;20031;-75
2021/10/16 10:50:00;;;;;;;10.23;4.10;;;12.60;99.90;;;;;;4915688;29;20032;-75
2021/10/16 10:52:28;;;;;;;9.13;3.78;;;12.70;99.90;;;;;;4915297;29;20036;-74
2021/10/16 10:55:00;;;;;;;6.45;3.45;;;12.70;99.90;;;;;;4917822;29;20039;-74
2021/10/16 11:00:34;;;;;;;8.70;3.85;;;12.70;99.90;;;;;;4916108;29;20039;-74
2021/10/16 11:03:00;;;;;;;10.98;3.15;;;12.80;99.90;;;;;;4916341;29;20052;-76
2021/10/16 11:05:34;;;;;;;10.20;3.70;;;12.80;99.90;;;;;;4917449;29;20377;-77
2021/10/16 11:08:10;;;;;;;10.88;3.72;;;12.80;99.90;;;;;;4916742;29;20115;-77
2021/10/16 11:10:36;;;;;;;11.50;4.13;;;12.90;99.90;;;;;;4916560;29;20051;-75
2021/10/16 11:13:15;;;;;;;11.93;4.25;;;12.90;99.90;;;;;;4914926;29;20055;-75
2021/10/16 11:15:41;;;;;;;9.90;4.15;;;12.90;99.90;;;;;;4895654;29;20032;-73
2021/10/16 11:18:15;;;;;;;10.70;4.50;;;12.90;99.90;;;;;;4896784;29;20029;-74
2021/10/16 11:20:42;;;;;;;10.90;4.10;;;13.00;99.90;;;;;;4896343;29;20043;-79
2021/10/16 11:23:21;;;;;;;7.78;3.47;;;13.10;99.90;;;;;;4896268;29;20027;-74
2021/10/16 11:26:08;;;;;;;11.55;3.30;;;13.10;99.90;;;;;;4897038;29;20021;-75
2021/10/16 11:28:36;;;;;;;10.30;3.53;;;13.20;99.90;;;;;;4911879;29;20065;-73
2021/10/16 11:31:02;;;;;;;8.38;3.10;;;13.20;99.90;;;;;;4918230;29;20605;-79
2021/10/16 11:33:30;;;;;;;9.00;3.00;;;13.20;99.90;;;;;;4916833;29;20123;-78
2021/10/16 11:35:58;;;;;;;7.13;2.60;;;13.20;99.90;;;;;;4929678;29;20110;-75
2021/10/16 11:38:35;;;;;;;9.38;3.30;;;13.20;99.90;;;;;;4951896;28;20110;-73
2021/10/16 11:41:01;;;;;;;8.23;3.35;;;13.20;99.90;;;;;;4937368;29;20036;-73
2021/10/16 11:43:35;;;;;;;8.98;3.58;;;13.20;99.90;;;;;;4920108;29;20024;-81
2021/10/16 11:46:03;;;;;;;8.55;3.30;;;13.30;99.90;;;;;;4916918;29;20060;-79
2021/10/16 11:48:28;;;;;;;12.82;4.60;;;13.30;99.90;;;;;;4917814;29;20016;-78
2021/10/16 11:50:57;;;;;;;15.43;4.30;;;13.30;99.90;;;;;;4917705;29;20544;-81
2021/10/16 11:53:26;;;;;;;11.20;3.47;;;13.30;99.90;;;;;;4929085;29;20029;-74
2021/10/16 11:56:13;;;;;;;7.63;3.25;;;13.30;99.90;;;;;;4916791;29;20547;-79
2021/10/16 11:58:39;;;;;;;10.55;4.22;;;13.30;99.90;;;;;;4916279;29;20075;-83
2021/10/16 12:01:10;;;;;;;5.53;3.20;;;13.30;99.90;;;;;;4915686;29;20044;-78
2021/10/16 12:03:40;;;;;;;13.55;4.22;;;13.30;99.90;;;;;;4915912;29;20197;-83
2021/10/16 12:06:08;;;;;;;7.90;3.28;;;13.20;99.90;;;;;;4917297;29;20080;-80
2021/10/16 12:08:45;;;;;;;8.02;3.67;;;13.30;99.90;;;;;;4916267;29;20054;-80
2021/10/16 12:11:17;;;;;;;11.82;4.63;;;13.30;99.90;;;;;;4917002;29;20028;-82
2021/10/16 12:13:45;;;;;;;6.13;3.30;;;13.30;99.90;;;;;;4913562;29;20505;-78
2021/10/16 12:16:11;;;;;;;9.68;3.65;;;13.40;99.90;;;;;;4916082;29;20111;-78
2021/10/16 12:18:52;;;;;;;11.20;3.92;;;13.40;99.90;;;;;;4915208;29;20059;-78
2021/10/16 12:21:48;;;;;;;10.20;3.55;;;13.40;99.90;;;;;;4916990;29;20071;-77
2021/10/16 12:24:20;;;;;;;10.65;3.55;;;13.50;99.90;;;;;;4911932;29;20036;-77
2021/10/16 12:26:48;;;;;;;8.35;3.30;;;13.50;99.90;;;;;;4911918;29;20024;-79
2021/10/16 12:29:31;;;;;;;7.43;4.07;;;13.50;99.90;;;;;;4916382;29;20087;-77
2021/10/16 12:31:58;;;;;;;12.18;4.03;;;13.50;99.90;;;;;;4915325;29;20052;-75
2021/10/16 12:34:23;;;;;;;8.55;3.30;;;13.60;99.90;;;;;;4916821;29;20075;-74
2021/10/16 12:36:52;;;;;;;10.77;4.18;;;13.60;99.90;;;;;;4935850;29;20076;-75
2021/10/16 12:39:57;;;;;;;6.00;3.05;;;13.70;99.90;;;;;;4935124;29;20026;-76
2021/10/16 12:42:25;;;;;;;6.68;3.10;;;13.70;99.90;;;;;;4913546;29;20051;-76
2021/10/16 12:44:56;;;;;;;12.68;4.18;;;13.80;99.90;;;;;;4951102;28;20031;-75
2021/10/16 12:47:25;;;;;;;10.10;3.92;;;13.80;99.90;;;;;;4949685;28;20031;-74
2021/10/16 12:49:56;;;;;;;5.65;2.80;;;13.80;99.90;;;;;;4934910;29;20043;-75
2021/10/16 12:52:31;;;;;;;7.45;2.65;;;13.90;99.90;;;;;;4936180;29;20062;-75
2021/10/16 12:54:59;;;;;;;10.15;4.13;;;13.90;99.90;;;;;;4935371;29;20032;-74
2021/10/16 12:57:25;;;;;;;9.98;3.55;;;13.90;99.90;;;;;;4935893;29;20023;-73